Tavernes de la Valldigna, Spain
Current Conditions -  °F | °C
As of 7:00 AM on Saturday 29 Nov 2014 (Local Time) from LEVC Reporting Station
Moderate Rain Moderate Rain  
Wind Chill: 59°   Ceiling: Unl
Heat Index: 59°   Visibility: 3mi
Dew Point: 59°   Wind: 5mph
Humidity: 100%   Direction: 20°NNE
Pressure: 29.26"   Gusts: NA
Location:  39.07°N, 0.27°W
Report Text: LEVC 290600Z 02004KT 330V120 5000 RA FEW010 SCT018 15/15 Q0991 TEMPO 3000
Loading
Personal Weather Stations






























Interactive Weather Map New forecast layout! Learn more

10-Day Weather Forecast

Advertisements
Track Severe Weather on mobile